createdAt,value
2022-08-22T00:02:43.756Z,99991.96
2022-08-22T00:02:48.148Z,99973.77
2022-08-22T04:03:08.786Z,100081.98
2022-08-22T04:05:55.857Z,100082.45
2022-08-22T04:08:56.306Z,100080.30
2022-08-22T04:11:48.223Z,100086.02
2022-08-22T04:14:26.863Z,100089.60
2022-08-22T04:17:02.122Z,100091.53
2022-08-22T04:20:35.510Z,100090.64
2022-08-22T04:23:37.103Z,100098.43
2022-08-22T04:26:21.361Z,100100.00
2022-08-22T04:29:03.336Z,100096.67
2022-08-22T04:31:56.905Z,100098.21
2022-08-22T04:34:38.228Z,100100.45
2022-08-22T04:41:49.632Z,100096.15
2022-08-22T04:44:29.263Z,100097.88
2022-08-22T05:05:14.121Z,100102.20
2022-08-22T05:07:49.333Z,100097.47
2022-08-22T05:37:50.398Z,100117.50
2022-08-22T05:40:25.671Z,100116.59
2022-08-22T05:42:57.242Z,100118.57
2022-08-22T05:45:28.193Z,100117.58
2022-08-22T05:48:33.570Z,100118.88
2022-08-22T05:55:32.893Z,100113.50
2022-08-22T05:58:57.615Z,100117.10
2022-08-22T06:01:50.166Z,100121.13
2022-08-22T06:04:37.219Z,100119.18
2022-08-22T06:07:24.363Z,100117.70
2022-08-22T06:10:28.706Z,100122.29
2022-08-22T06:13:12.752Z,100119.02
2022-08-22T06:16:11.181Z,100118.13
2022-08-22T06:18:44.108Z,100122.39
2022-08-22T06:21:22.633Z,100123.16
2022-08-22T06:24:00.217Z,100127.69
2022-08-22T06:26:38.602Z,100130.55
2022-08-22T06:29:12.382Z,100131.30
2022-08-22T06:31:49.721Z,100132.89
2022-08-22T06:34:28.231Z,100129.41
2022-08-22T06:36:59.473Z,100130.04
2022-08-22T06:39:32.392Z,100133.82
2022-08-22T06:42:01.823Z,100136.13
2022-08-22T06:44:38.518Z,100142.37
2022-08-22T06:47:10.923Z,100143.25
2022-08-22T06:49:43.512Z,100144.36
2022-08-22T06:52:19.371Z,100150.46
2022-08-22T06:54:52.205Z,100152.91
2022-08-22T06:57:44.731Z,100150.93
2022-08-22T07:00:17.210Z,100152.67
2022-08-22T07:02:51.736Z,100154.02
2022-08-22T07:05:26.316Z,100151.98
2022-08-22T07:07:56.519Z,100150.39
2022-08-22T07:10:26.120Z,100152.64
2022-08-22T07:12:57.308Z,100152.52
2022-08-22T07:15:38.005Z,100160.54
2022-08-22T07:18:32.426Z,100159.21
2022-08-22T07:21:05.382Z,100158.30
2022-08-22T07:28:02.256Z,100160.00
2022-08-22T07:35:20.050Z,100169.27
2022-08-22T07:38:09.267Z,100170.01
2022-08-22T07:40:56.778Z,100168.70
2022-08-22T07:43:31.814Z,100168.48
2022-08-22T07:46:34.765Z,100172.90
2022-08-22T07:49:15.628Z,100174.41
2022-08-22T07:51:49.668Z,100175.08
2022-08-22T07:54:34.358Z,100174.60
2022-08-22T07:57:32.819Z,100179.08
2022-08-22T08:00:16.339Z,100179.91
2022-08-22T08:02:59.568Z,100176.53
2022-08-22T08:05:38.590Z,100179.06
2022-08-22T08:08:27.930Z,100184.83
2022-08-22T08:11:03.481Z,100182.32
2022-08-22T08:13:44.602Z,100188.70
2022-08-22T08:16:27.191Z,100189.60
2022-08-22T08:19:06.803Z,100186.72
2022-08-22T08:21:55.005Z,100189.84
2022-08-22T08:24:43.342Z,100191.33
2022-08-22T08:27:50.263Z,100189.31
2022-08-22T08:30:35.286Z,100181.26
2022-08-22T08:33:25.516Z,100187.99
2022-08-22T08:36:07.600Z,100187.66
2022-08-22T08:38:46.571Z,100187.87
2022-08-22T08:41:49.012Z,100186.95
2022-08-22T08:44:51.903Z,100185.11
2022-08-22T08:48:10.989Z,100182.48
2022-08-22T08:50:47.631Z,100183.84
2022-08-22T08:53:39.368Z,100186.48
2022-08-22T08:56:59.929Z,100188.69
2022-08-22T09:00:16.394Z,100186.77
2022-08-22T09:03:11.151Z,100185.55
2022-08-22T09:06:12.427Z,100179.52
2022-08-22T09:08:59.290Z,100177.70
2022-08-22T09:12:06.776Z,100176.30
2022-08-22T09:15:01.080Z,100173.86
2022-08-22T09:18:18.588Z,100176.67
2022-08-22T09:21:00.270Z,100179.65
2022-08-22T09:24:01.616Z,100183.36
2022-08-22T09:27:08.751Z,100184.36
2022-08-22T09:29:51.435Z,100185.98
2022-08-22T09:32:53.572Z,100185.70
2022-08-22T09:35:35.216Z,100190.52
2022-08-22T09:38:25.423Z,100190.09
2022-08-22T09:41:20.449Z,100196.59
2022-08-22T09:44:28.908Z,100198.83
2022-08-22T09:47:11.248Z,100198.02
2022-08-22T09:50:16.977Z,100195.51
2022-08-22T09:53:01.979Z,100194.73
2022-08-22T09:55:36.275Z,100195.12
2022-08-22T09:58:37.647Z,100196.58
2022-08-22T10:01:32.938Z,100201.06
2022-08-22T10:04:20.880Z,100202.35
2022-08-22T10:07:28.315Z,100200.34
2022-08-22T10:10:21.524Z,100193.18
2022-08-22T10:13:11.553Z,100190.45
2022-08-22T10:16:30.505Z,100194.96
2022-08-22T10:19:38.944Z,100190.78
2022-08-22T10:22:10.757Z,100193.16
2022-08-22T10:24:59.008Z,100194.75
2022-08-22T10:28:10.647Z,100191.91
2022-08-22T10:31:22.407Z,100195.98
2022-08-22T10:34:20.597Z,100193.08
2022-08-22T10:37:00.915Z,100193.15
2022-08-22T10:39:50.063Z,100187.81
2022-08-22T10:42:30.169Z,100188.06
2022-08-22T10:45:05.083Z,100192.13
2022-08-22T10:47:54.730Z,100192.30
2022-08-22T10:50:49.396Z,100190.53
2022-08-22T10:53:34.807Z,100191.41
2022-08-22T10:56:10.571Z,100191.89
2022-08-22T10:58:49.785Z,100192.89
2022-08-22T11:01:38.170Z,100192.10
2022-08-22T11:04:44.952Z,100188.49
2022-08-22T11:08:00.071Z,100187.04
2022-08-22T11:11:06.615Z,100181.89
2022-08-22T11:13:44.520Z,100179.77
2022-08-22T11:16:18.320Z,100181.39
2022-08-22T11:19:15.945Z,100178.27
2022-08-22T11:21:58.308Z,100175.85
2022-08-22T11:24:56.254Z,100178.55
2022-08-22T11:27:40.790Z,100177.43
2022-08-22T11:30:29.586Z,100180.58
2022-08-22T11:33:47.150Z,100182.06
2022-08-22T11:36:37.289Z,100182.96
2022-08-22T11:39:18.532Z,100183.66
2022-08-22T11:41:52.405Z,100183.58
2022-08-22T11:44:50.786Z,100185.80
2022-08-22T11:47:28.066Z,100184.77
2022-08-22T11:50:03.624Z,100184.21
2022-08-22T11:53:04.342Z,100181.35
2022-08-22T11:55:58.749Z,100187.98
2022-08-22T11:58:46.591Z,100191.42
2022-08-22T12:01:23.061Z,100185.98
2022-08-22T12:04:09.903Z,100186.02
2022-08-22T12:07:01.546Z,100185.75
2022-08-22T12:09:55.581Z,100184.77
2022-08-22T12:12:29.320Z,100180.92
2022-08-22T12:15:02.128Z,100178.20
2022-08-22T12:18:09.540Z,100176.41
2022-08-22T12:21:15.630Z,100173.77
2022-08-22T12:24:06.115Z,100172.96
2022-08-22T12:26:55.412Z,100175.61
2022-08-22T12:29:48.051Z,100177.98
2022-08-22T12:32:34.246Z,100178.50
2022-08-22T12:35:43.616Z,100177.69
2022-08-22T12:38:49.568Z,100176.73
2022-08-22T12:42:04.111Z,100174.95
2022-08-22T12:44:52.252Z,100170.31
2022-08-22T12:48:03.497Z,100169.22
2022-08-22T12:51:02.526Z,100166.49
2022-08-22T12:54:12.062Z,100168.21
2022-08-22T12:56:50.768Z,100169.86
2022-08-22T12:59:25.815Z,100170.54
2022-08-22T13:02:00.453Z,100167.90
2022-08-22T13:04:34.988Z,100170.46
2022-08-22T13:07:18.485Z,100168.39
2022-08-22T13:09:50.190Z,100169.73
2022-08-22T13:12:34.090Z,100168.80
2022-08-22T13:15:28.809Z,100168.41
2022-08-22T13:18:18.857Z,100171.27
2022-08-22T13:20:53.427Z,100174.68
2022-08-22T13:23:45.516Z,100173.17
2022-08-22T13:26:32.090Z,100170.79
2022-08-22T13:29:25.142Z,100170.28
2022-08-22T13:32:04.469Z,100170.14
2022-08-22T13:34:49.825Z,100159.95
2022-08-22T13:37:24.513Z,100157.98
2022-08-22T13:39:59.469Z,100162.95
2022-08-22T13:42:31.609Z,100160.45
2022-08-22T13:45:06.147Z,100165.73
2022-08-22T13:47:39.732Z,100170.57
2022-08-22T13:50:15.068Z,100169.20
2022-08-22T13:52:55.351Z,100168.59
2022-08-22T13:55:29.996Z,100174.85
2022-08-22T13:58:22.638Z,100172.80
2022-08-22T14:01:15.303Z,100167.64
2022-08-22T14:04:01.595Z,100163.29
2022-08-22T14:06:48.261Z,100162.23
2022-08-22T14:09:42.871Z,100158.38
2022-08-22T14:12:24.320Z,100158.22
2022-08-22T14:15:07.074Z,100154.08
2022-08-22T14:17:48.908Z,100153.67
2022-08-22T14:20:32.245Z,100150.70
2022-08-22T14:23:24.129Z,100149.64
2022-08-22T14:25:57.432Z,100149.42
2022-08-22T14:28:31.993Z,100144.52
2022-08-22T14:31:13.721Z,100146.26
2022-08-22T14:33:57.571Z,100144.64
2022-08-22T14:36:30.239Z,100145.91
2022-08-22T14:39:11.402Z,100148.85
2022-08-22T14:41:56.211Z,100151.16
2022-08-22T14:44:42.297Z,100152.70
2022-08-22T14:47:40.358Z,100151.45
2022-08-22T14:50:37.183Z,100153.52
2022-08-22T14:53:24.963Z,100156.27
2022-08-22T14:56:05.216Z,100154.63
2022-08-22T14:58:49.987Z,100147.86
2022-08-22T15:01:23.207Z,100149.38
2022-08-22T15:04:05.746Z,100147.46
2022-08-22T15:06:48.179Z,100145.42
2022-08-22T15:09:41.499Z,100144.38
2022-08-22T15:12:31.909Z,100147.52
2022-08-22T15:15:06.270Z,100148.21
2022-08-22T15:18:01.174Z,100148.40
2022-08-22T15:20:36.303Z,100150.61
2022-08-22T15:23:17.049Z,100150.60
2022-08-22T15:25:56.480Z,100141.77
2022-08-22T15:28:26.135Z,100145.73
2022-08-22T15:30:58.747Z,100142.20
2022-08-22T15:33:45.448Z,100144.38
2022-08-22T15:36:22.628Z,100137.85
2022-08-22T15:39:30.713Z,100135.55
2022-08-22T15:42:02.871Z,100137.22
2022-08-22T15:44:44.334Z,100131.22
2022-08-22T15:47:27.682Z,100133.29
2022-08-22T15:50:01.901Z,100128.20
2022-08-22T15:52:59.153Z,100121.29
2022-08-22T15:55:36.942Z,100119.63
2022-08-22T15:58:22.580Z,100117.98
2022-08-22T16:01:19.777Z,100115.54
2022-08-22T16:04:14.517Z,100115.74
2022-08-22T16:06:49.603Z,100117.56
2022-08-22T16:09:50.594Z,100118.06
2022-08-22T16:12:33.822Z,100117.56
2022-08-22T16:15:05.902Z,100118.95
2022-08-22T16:17:44.304Z,100117.92
2022-08-22T16:20:20.199Z,100118.34
2022-08-22T16:22:57.691Z,100119.91
2022-08-22T16:25:45.671Z,100116.89
2022-08-22T16:28:57.276Z,100118.64
2022-08-22T16:31:57.029Z,100123.34
2022-08-22T16:34:38.318Z,100120.20
2022-08-22T16:37:18.463Z,100124.27
2022-08-22T16:39:59.295Z,100122.27
2022-08-22T16:42:58.143Z,100124.15
2022-08-22T16:45:36.959Z,100123.95
2022-08-22T16:48:32.794Z,100120.63
2022-08-22T16:51:09.459Z,100121.12
2022-08-22T16:53:38.712Z,100119.11
2022-08-22T16:56:31.806Z,100125.91
2022-08-22T16:59:22.597Z,100132.38
2022-08-22T17:02:10.567Z,100134.40
2022-08-22T17:05:03.615Z,100136.42
2022-08-22T17:07:55.097Z,100138.90
2022-08-22T17:10:37.229Z,100144.02
2022-08-22T17:13:32.877Z,100155.21
2022-08-22T17:16:08.321Z,100157.87
2022-08-22T17:18:52.671Z,100164.38
2022-08-22T17:21:51.855Z,100167.02
2022-08-22T17:24:52.214Z,100173.38
2022-08-22T17:27:38.846Z,100180.27
2022-08-22T17:30:13.734Z,100181.89
2022-08-22T17:33:05.235Z,100180.27
2022-08-22T17:35:40.585Z,100179.06
2022-08-22T17:38:33.758Z,100179.13
2022-08-22T17:41:40.947Z,100180.76
2022-08-22T17:44:23.333Z,100177.11
2022-08-22T17:47:08.150Z,100177.70
2022-08-22T17:49:45.267Z,100182.04
2022-08-22T17:52:40.173Z,100179.10
2022-08-22T17:55:15.929Z,100177.14
2022-08-22T17:57:56.626Z,100175.24
2022-08-22T18:00:40.048Z,100180.45
2022-08-22T18:03:25.851Z,100179.98
2022-08-22T18:06:24.334Z,100182.21
2022-08-22T18:09:17.800Z,100180.46
2022-08-22T18:11:52.597Z,100186.47
2022-08-22T18:14:24.917Z,100189.24
2022-08-22T18:16:56.511Z,100187.40
2022-08-22T18:19:58.662Z,100195.23
2022-08-22T18:22:41.815Z,100196.96
2022-08-22T18:25:20.055Z,100201.50
2022-08-22T18:27:56.431Z,100205.74
2022-08-22T18:30:53.758Z,100205.52
2022-08-22T18:33:35.446Z,100206.27
2022-08-22T18:36:18.763Z,100210.61
2022-08-22T18:38:54.954Z,100215.74
2022-08-22T18:41:39.299Z,100216.14
2022-08-22T18:44:21.583Z,100215.93
2022-08-22T18:46:53.243Z,100211.45
2022-08-22T18:49:24.698Z,100205.95
2022-08-22T18:52:06.319Z,100205.10
2022-08-22T18:55:11.360Z,100207.51
2022-08-22T18:58:06.543Z,100213.77
2022-08-22T19:00:47.525Z,100214.06
2022-08-22T19:03:48.662Z,100214.80
2022-08-22T19:06:45.001Z,100215.98
2022-08-22T19:09:38.251Z,100213.38
2022-08-22T19:12:15.961Z,100217.63
2022-08-22T19:15:24.221Z,100221.59
2022-08-22T19:18:34.873Z,100219.45
2022-08-22T19:21:41.506Z,100216.11
2022-08-22T19:24:57.191Z,100225.21
2022-08-22T19:27:31.111Z,100225.41
2022-08-22T19:30:26.957Z,100227.58
2022-08-22T19:32:59.577Z,100232.16
2022-08-22T19:40:45.869Z,100236.23
2022-08-22T19:43:31.454Z,100233.06
2022-08-22T19:46:07.068Z,100233.73
2022-08-22T19:48:50.625Z,100230.14
2022-08-22T19:51:20.023Z,100226.98
2022-08-22T19:54:21.066Z,100227.48
2022-08-22T19:57:10.308Z,100229.27
2022-08-22T20:00:01.213Z,100232.63
2022-08-22T20:02:57.153Z,100234.47
2022-08-22T20:05:44.908Z,100230.96
2022-08-22T20:08:59.375Z,100229.63
2022-08-22T20:11:51.176Z,100225.45
2022-08-22T20:14:40.246Z,100223.50
2022-08-22T20:17:28.003Z,100222.10
2022-08-22T20:22:57.895Z,100224.42
2022-08-22T20:25:42.086Z,100223.50
2022-08-22T20:28:30.308Z,100219.04
2022-08-22T20:31:02.464Z,100214.30
2022-08-22T20:33:42.318Z,100210.91
2022-08-22T20:36:27.647Z,100209.67
2022-08-22T20:39:11.245Z,100211.39
2022-08-22T20:41:44.043Z,100206.88
2022-08-22T20:44:31.689Z,100205.69
2022-08-22T20:47:11.488Z,100207.23
2022-08-22T20:49:51.133Z,100207.48
2022-08-22T20:52:22.911Z,100204.89
2022-08-22T20:55:19.628Z,100207.63
2022-08-22T20:57:59.654Z,100209.77
2022-08-22T21:00:46.102Z,100208.15
2022-08-22T21:03:41.800Z,100203.46
2022-08-22T21:06:15.941Z,100204.30
2022-08-22T21:08:47.995Z,100200.09
2022-08-22T21:11:41.687Z,100198.80
2022-08-22T21:14:26.642Z,100193.16
2022-08-22T21:16:56.441Z,100194.72
2022-08-22T21:19:30.881Z,100192.83
2022-08-22T21:22:18.372Z,100192.44
2022-08-22T21:24:48.351Z,100191.71
2022-08-22T21:27:27.113Z,100188.91
2022-08-22T21:29:58.578Z,100188.05
2022-08-22T21:32:34.998Z,100183.44
2022-08-22T21:35:07.891Z,100179.06
2022-08-22T21:37:40.875Z,100178.94
2022-08-22T21:40:20.552Z,100180.42
2022-08-22T21:43:09.859Z,100179.05
2022-08-22T21:45:39.768Z,100175.98
2022-08-22T21:48:39.573Z,100172.05
2022-08-22T21:51:29.159Z,100169.23
2022-08-22T21:54:26.208Z,100167.05
2022-08-22T21:57:17.685Z,100164.27
2022-08-22T21:59:59.519Z,100163.34
2022-08-22T22:02:31.126Z,100160.91
2022-08-22T22:05:02.803Z,100161.54
2022-08-22T22:07:32.408Z,100163.91
2022-08-22T22:10:02.100Z,100162.38
2022-08-22T22:12:32.187Z,100166.60
2022-08-22T22:15:02.171Z,100166.77
2022-08-22T22:17:31.539Z,100170.41
2022-08-22T22:20:01.025Z,100167.48
2022-08-22T22:22:31.098Z,100163.34
2022-08-22T22:25:00.772Z,100159.05
2022-08-22T22:27:30.191Z,100159.81
2022-08-22T22:30:00.152Z,100159.39
2022-08-22T22:32:29.815Z,100158.28
2022-08-22T22:34:59.223Z,100157.37
2022-08-22T22:37:29.633Z,100161.61
2022-08-22T22:40:00.390Z,100160.38
2022-08-22T22:42:37.891Z,100160.84
2022-08-22T22:45:07.777Z,100162.31
2022-08-22T22:47:37.517Z,100155.67
2022-08-22T22:50:07.900Z,100153.70
2022-08-22T22:52:45.815Z,100157.05
2022-08-22T22:55:24.186Z,100157.37
2022-08-22T22:57:58.973Z,100151.94
